sensor_id;sensor_type;location;lat;lon;timestamp;pressure;altitude;pressure_sealevel;temperature;humidity
59531;BME280;45349;48.692;8.186;2022-11-11T00:02:25;100092.63;;;4.96;100.00
59531;BME280;45349;48.692;8.186;2022-11-11T00:05:10;100089.06;;;4.99;100.00
59531;BME280;45349;48.692;8.186;2022-11-11T00:07:56;100084.53;;;5.02;100.00
59531;BME280;45349;48.692;8.186;2022-11-11T00:10:43;100086.38;;;5.00;100.00
59531;BME280;45349;48.692;8.186;2022-11-11T00:13:29;100082.09;;;4.99;100.00
59531;BME280;45349;48.692;8.186;2022-11-11T00:16:16;100086.00;;;4.91;100.00
59531;BME280;45349;48.692;8.186;2022-11-11T00:19:02;100079.22;;;4.88;100.00
59531;BME280;45349;48.692;8.186;2022-11-11T00:22:01;100083.34;;;4.92;100.00
59531;BME280;45349;48.692;8.186;2022-11-11T00:25:05;100091.25;;;4.89;100.00
59531;BME280;45349;48.692;8.186;2022-11-11T00:27:52;100088.81;;;4.86;100.00
59531;BME280;45349;48.692;8.186;2022-11-11T00:30:37;100096.75;;;4.83;100.00
59531;BME280;45349;48.692;8.186;2022-11-11T00:33:21;100093.47;;;4.79;100.00
59531;BME280;45349;48.692;8.186;2022-11-11T00:36:07;100089.88;;;4.82;100.00
59531;BME280;45349;48.692;8.186;2022-11-11T00:38:52;100084.97;;;4.77;100.00
59531;BME280;45349;48.692;8.186;2022-11-11T00:41:38;100086.88;;;4.73;100.00
59531;BME280;45349;48.692;8.186;2022-11-11T00:44:24;100084.88;;;4.79;100.00
59531;BME280;45349;48.692;8.186;2022-11-11T00:47:11;100086.38;;;4.83;100.00
59531;BME280;45349;48.692;8.186;2022-11-11T00:50:17;100084.50;;;4.86;100.00
59531;BME280;45349;48.692;8.186;2022-11-11T00:53:22;100084.03;;;4.96;100.00
59531;BME280;45349;48.692;8.186;2022-11-11T00:56:07;100090.13;;;4.95;100.00
59531;BME280;45349;48.692;8.186;2022-11-11T00:58:52;100096.53;;;4.87;100.00
59531;BME280;45349;48.692;8.186;2022-11-11T01:01:39;100101.69;;;4.87;100.00
59531;BME280;45349;48.692;8.186;2022-11-11T01:04:24;100100.03;;;4.86;100.00
59531;BME280;45349;48.692;8.186;2022-11-11T01:07:09;100102.06;;;4.80;100.00
59531;BME280;45349;48.692;8.186;2022-11-11T01:09:54;100102.41;;;4.73;100.00
59531;BME280;45349;48.692;8.186;2022-11-11T01:12:40;100110.53;;;4.66;100.00
59531;BME280;45349;48.692;8.186;2022-11-11T01:15:25;100110.91;;;4.58;100.00
59531;BME280;45349;48.692;8.186;2022-11-11T01:18:14;100118.81;;;4.55;100.00
59531;BME280;45349;48.692;8.186;2022-11-11T01:21:04;100119.81;;;4.52;100.00
59531;BME280;45349;48.692;8.186;2022-11-11T01:23:51;100117.06;;;4.55;100.00
59531;BME280;45349;48.692;8.186;2022-11-11T01:26:36;100116.53;;;4.49;100.00
59531;BME280;45349;48.692;8.186;2022-11-11T01:29:21;100115.69;;;4.48;100.00
59531;BME280;45349;48.692;8.186;2022-11-11T01:32:07;100107.41;;;4.41;100.00
59531;BME280;45349;48.692;8.186;2022-11-11T01:34:53;100112.50;;;4.43;100.00
59531;BME280;45349;48.692;8.186;2022-11-11T01:37:38;100110.59;;;4.47;100.00
59531;BME280;45349;48.692;8.186;2022-11-11T01:40:24;100113.19;;;4.47;100.00
59531;BME280;45349;48.692;8.186;2022-11-11T01:43:16;100115.59;;;4.32;100.00
59531;BME280;45349;48.692;8.186;2022-11-11T01:46:08;100115.81;;;4.27;100.00
59531;BME280;45349;48.692;8.186;2022-11-11T01:49:20;100112.16;;;4.32;100.00
59531;BME280;45349;48.692;8.186;2022-11-11T01:52:10;100111.41;;;4.29;100.00
59531;BME280;45349;48.692;8.186;2022-11-11T01:55:17;100114.75;;;4.32;100.00
59531;BME280;45349;48.692;8.186;2022-11-11T01:58:05;100117.34;;;4.32;100.00
59531;BME280;45349;48.692;8.186;2022-11-11T02:00:51;100115.75;;;4.29;100.00
59531;BME280;45349;48.692;8.186;2022-11-11T02:03:39;100121.69;;;4.31;100.00
59531;BME280;45349;48.692;8.186;2022-11-11T02:06:46;100113.22;;;4.27;100.00
59531;BME280;45349;48.692;8.186;2022-11-11T02:09:38;100125.09;;;4.32;100.00
59531;BME280;45349;48.692;8.186;2022-11-11T02:12:25;100115.75;;;4.29;100.00
59531;BME280;45349;48.692;8.186;2022-11-11T02:15:28;100114.31;;;4.23;100.00
59531;BME280;45349;48.692;8.186;2022-11-11T02:18:13;100121.84;;;4.28;100.00
59531;BME280;45349;48.692;8.186;2022-11-11T02:20:58;100118.34;;;4.29;100.00
59531;BME280;45349;48.692;8.186;2022-11-11T02:23:52;100115.22;;;4.22;100.00
59531;BME280;45349;48.692;8.186;2022-11-11T02:26:41;100106.72;;;4.20;100.00
59531;BME280;45349;48.692;8.186;2022-11-11T02:29:28;100111.88;;;4.20;100.00
59531;BME280;45349;48.692;8.186;2022-11-11T02:32:13;100107.22;;;4.27;100.00
59531;BME280;45349;48.692;8.186;2022-11-11T02:35:21;100118.41;;;4.27;100.00
59531;BME280;45349;48.692;8.186;2022-11-11T02:38:11;100111.78;;;4.22;100.00
59531;BME280;45349;48.692;8.186;2022-11-11T02:41:06;100112.69;;;4.21;100.00
59531;BME280;45349;48.692;8.186;2022-11-11T02:48:17;100121.59;;;4.15;100.00
59531;BME280;45349;48.692;8.186;2022-11-11T02:51:02;100126.81;;;4.13;100.00
59531;BME280;45349;48.692;8.186;2022-11-11T02:53:48;100137.19;;;4.31;100.00
59531;BME280;45349;48.692;8.186;2022-11-11T02:56:40;100132.94;;;4.30;100.00
59531;BME280;45349;48.692;8.186;2022-11-11T02:59:44;100132.31;;;4.25;100.00
59531;BME280;45349;48.692;8.186;2022-11-11T03:02:29;100132.47;;;4.22;100.00
59531;BME280;45349;48.692;8.186;2022-11-11T03:05:15;100125.09;;;4.14;100.00
59531;BME280;45349;48.692;8.186;2022-11-11T03:08:00;100112.31;;;4.11;100.00
59531;BME280;45349;48.692;8.186;2022-11-11T03:10:48;100102.66;;;4.14;100.00
59531;BME280;45349;48.692;8.186;2022-11-11T03:13:35;100105.47;;;4.10;100.00
59531;BME280;45349;48.692;8.186;2022-11-11T03:16:20;100102.88;;;4.10;100.00
59531;BME280;45349;48.692;8.186;2022-11-11T03:19:23;100105.47;;;4.10;100.00
59531;BME280;45349;48.692;8.186;2022-11-11T03:22:08;100113.13;;;4.11;100.00
59531;BME280;45349;48.692;8.186;2022-11-11T03:25:03;100101.97;;;4.11;100.00
59531;BME280;45349;48.692;8.186;2022-11-11T03:28:24;100095.47;;;4.02;100.00
59531;BME280;45349;48.692;8.186;2022-11-11T03:34:56;100103.75;;;3.91;100.00
59531;BME280;45349;48.692;8.186;2022-11-11T03:37:44;100102.56;;;3.98;100.00
59531;BME280;45349;48.692;8.186;2022-11-11T03:40:49;100099.69;;;4.05;100.00
59531;BME280;45349;48.692;8.186;2022-11-11T03:43:34;100112.66;;;4.03;100.00
59531;BME280;45349;48.692;8.186;2022-11-11T03:46:20;100111.06;;;4.01;100.00
59531;BME280;45349;48.692;8.186;2022-11-11T03:49:08;100106.88;;;3.98;100.00
59531;BME280;45349;48.692;8.186;2022-11-11T03:52:01;100107.84;;;3.95;100.00
59531;BME280;45349;48.692;8.186;2022-11-11T03:54:49;100116.38;;;3.97;100.00
59531;BME280;45349;48.692;8.186;2022-11-11T03:57:39;100117.47;;;3.92;100.00
59531;BME280;45349;48.692;8.186;2022-11-11T04:00:27;100113.16;;;3.92;100.00
59531;BME280;45349;48.692;8.186;2022-11-11T04:03:16;100115.91;;;3.89;100.00
59531;BME280;45349;48.692;8.186;2022-11-11T04:06:33;100126.28;;;3.88;100.00
59531;BME280;45349;48.692;8.186;2022-11-11T04:09:36;100138.28;;;3.89;100.00
59531;BME280;45349;48.692;8.186;2022-11-11T04:12:44;100144.72;;;3.80;100.00
59531;BME280;45349;48.692;8.186;2022-11-11T04:15:52;100148.34;;;3.76;100.00
59531;BME280;45349;48.692;8.186;2022-11-11T04:18:56;100155.75;;;3.64;100.00
59531;BME280;45349;48.692;8.186;2022-11-11T04:25:19;100174.09;;;3.58;100.00
59531;BME280;45349;48.692;8.186;2022-11-11T04:28:22;100169.06;;;3.55;100.00
59531;BME280;45349;48.692;8.186;2022-11-11T04:31:25;100169.84;;;3.57;100.00
59531;BME280;45349;48.692;8.186;2022-11-11T04:34:12;100187.00;;;3.58;100.00
59531;BME280;45349;48.692;8.186;2022-11-11T04:38:09;100191.41;;;3.56;100.00
59531;BME280;45349;48.692;8.186;2022-11-11T04:41:23;100191.53;;;3.53;100.00
59531;BME280;45349;48.692;8.186;2022-11-11T04:44:07;100198.06;;;3.62;100.00
59531;BME280;45349;48.692;8.186;2022-11-11T04:50:49;100195.09;;;3.50;100.00
59531;BME280;45349;48.692;8.186;2022-11-11T04:57:31;100189.75;;;3.34;100.00
59531;BME280;45349;48.692;8.186;2022-11-11T05:00:54;100196.28;;;3.22;100.00
59531;BME280;45349;48.692;8.186;2022-11-11T05:04:08;100198.09;;;3.20;100.00
59531;BME280;45349;48.692;8.186;2022-11-11T05:07:09;100199.44;;;3.08;100.00
59531;BME280;45349;48.692;8.186;2022-11-11T05:11:04;100204.34;;;3.15;100.00
59531;BME280;45349;48.692;8.186;2022-11-11T05:21:30;100222.91;;;3.02;100.00
59531;BME280;45349;48.692;8.186;2022-11-11T05:28:18;100232.22;;;3.06;100.00
59531;BME280;45349;48.692;8.186;2022-11-11T05:35:04;100231.88;;;3.14;100.00
59531;BME280;45349;48.692;8.186;2022-11-11T05:41:52;100239.19;;;3.04;100.00
59531;BME280;45349;48.692;8.186;2022-11-11T06:08:00;100257.09;;;3.28;100.00
59531;BME280;45349;48.692;8.186;2022-11-11T06:11:12;100251.03;;;3.29;100.00
59531;BME280;45349;48.692;8.186;2022-11-11T06:14:10;100260.22;;;3.36;100.00
59531;BME280;45349;48.692;8.186;2022-11-11T06:17:02;100258.28;;;3.42;100.00
59531;BME280;45349;48.692;8.186;2022-11-11T06:20:05;100258.41;;;3.38;100.00
59531;BME280;45349;48.692;8.186;2022-11-11T06:23:03;100261.75;;;3.40;100.00
59531;BME280;45349;48.692;8.186;2022-11-11T06:26:07;100260.72;;;3.45;100.00
59531;BME280;45349;48.692;8.186;2022-11-11T06:28:59;100260.81;;;3.43;100.00
59531;BME280;45349;48.692;8.186;2022-11-11T06:31:49;100267.81;;;3.39;100.00
59531;BME280;45349;48.692;8.186;2022-11-11T06:34:38;100261.88;;;3.37;100.00
59531;BME280;45349;48.692;8.186;2022-11-11T06:37:25;100259.69;;;3.49;100.00
59531;BME280;45349;48.692;8.186;2022-11-11T06:40:10;100261.31;;;3.51;100.00
59531;BME280;45349;48.692;8.186;2022-11-11T06:43:01;100255.25;;;3.52;100.00
59531;BME280;45349;48.692;8.186;2022-11-11T06:45:51;100259.44;;;3.55;100.00
59531;BME280;45349;48.692;8.186;2022-11-11T06:48:38;100250.59;;;3.61;100.00
59531;BME280;45349;48.692;8.186;2022-11-11T06:51:25;100264.28;;;3.63;100.00
59531;BME280;45349;48.692;8.186;2022-11-11T06:54:10;100261.44;;;3.69;100.00
59531;BME280;45349;48.692;8.186;2022-11-11T06:56:56;100278.00;;;3.84;100.00
59531;BME280;45349;48.692;8.186;2022-11-11T06:59:51;100287.47;;;3.83;100.00
59531;BME280;45349;48.692;8.186;2022-11-11T07:02:45;100283.03;;;3.87;100.00
59531;BME280;45349;48.692;8.186;2022-11-11T07:05:54;100284.50;;;3.93;100.00
59531;BME280;45349;48.692;8.186;2022-11-11T07:08:48;100289.41;;;3.99;100.00
59531;BME280;45349;48.692;8.186;2022-11-11T07:11:39;100285.38;;;4.12;100.00
59531;BME280;45349;48.692;8.186;2022-11-11T07:14:28;100284.28;;;4.18;100.00
59531;BME280;45349;48.692;8.186;2022-11-11T07:17:35;100287.31;;;4.26;100.00
59531;BME280;45349;48.692;8.186;2022-11-11T07:20:20;100284.47;;;4.33;100.00
59531;BME280;45349;48.692;8.186;2022-11-11T07:23:08;100291.88;;;4.40;100.00
59531;BME280;45349;48.692;8.186;2022-11-11T07:25:53;100295.03;;;4.47;100.00
59531;BME280;45349;48.692;8.186;2022-11-11T07:29:05;100301.53;;;4.56;100.00
59531;BME280;45349;48.692;8.186;2022-11-11T07:32:01;100309.69;;;4.66;100.00
59531;BME280;45349;48.692;8.186;2022-11-11T07:34:47;100311.81;;;4.77;100.00
59531;BME280;45349;48.692;8.186;2022-11-11T07:37:35;100308.06;;;4.82;100.00
59531;BME280;45349;48.692;8.186;2022-11-11T07:40:28;100304.91;;;4.95;100.00
59531;BME280;45349;48.692;8.186;2022-11-11T07:43:15;100308.13;;;5.00;100.00
59531;BME280;45349;48.692;8.186;2022-11-11T07:46:02;100298.16;;;5.10;100.00
59531;BME280;45349;48.692;8.186;2022-11-11T07:49:11;100296.25;;;5.13;100.00
59531;BME280;45349;48.692;8.186;2022-11-11T07:52:20;100301.91;;;5.22;100.00
59531;BME280;45349;48.692;8.186;2022-11-11T07:55:19;100306.78;;;5.28;100.00
59531;BME280;45349;48.692;8.186;2022-11-11T07:59:39;100311.47;;;5.37;100.00
59531;BME280;45349;48.692;8.186;2022-11-11T08:16:19;100306.50;;;5.85;100.00
59531;BME280;45349;48.692;8.186;2022-11-11T08:19:22;100312.59;;;5.84;100.00
59531;BME280;45349;48.692;8.186;2022-11-11T08:22:28;100307.84;;;5.93;100.00
59531;BME280;45349;48.692;8.186;2022-11-11T08:25:31;100304.94;;;5.99;100.00
59531;BME280;45349;48.692;8.186;2022-11-11T08:36:11;100310.38;;;5.94;100.00
59531;BME280;45349;48.692;8.186;2022-11-11T08:38:58;100308.38;;;5.66;100.00
59531;BME280;45349;48.692;8.186;2022-11-11T08:41:43;100319.81;;;5.61;100.00
59531;BME280;45349;48.692;8.186;2022-11-11T08:44:29;100324.44;;;5.55;100.00
59531;BME280;45349;48.692;8.186;2022-11-11T08:50:50;100325.69;;;5.99;100.00
59531;BME280;45349;48.692;8.186;2022-11-11T08:57:02;100319.13;;;5.91;100.00
59531;BME280;45349;48.692;8.186;2022-11-11T08:59:47;100318.75;;;6.17;100.00
59531;BME280;45349;48.692;8.186;2022-11-11T09:02:32;100312.06;;;6.29;100.00
59531;BME280;45349;48.692;8.186;2022-11-11T09:12:38;100313.72;;;6.94;100.00
59531;BME280;45349;48.692;8.186;2022-11-11T09:15:27;100317.75;;;7.00;100.00
59531;BME280;45349;48.692;8.186;2022-11-11T09:19:05;100318.16;;;6.92;100.00
59531;BME280;45349;48.692;8.186;2022-11-11T09:21:53;100319.16;;;7.05;100.00
59531;BME280;45349;48.692;8.186;2022-11-11T09:24:40;100318.91;;;7.10;100.00
59531;BME280;45349;48.692;8.186;2022-11-11T09:27:28;100313.69;;;7.26;100.00
59531;BME280;45349;48.692;8.186;2022-11-11T09:30:17;100320.81;;;7.22;100.00
59531;BME280;45349;48.692;8.186;2022-11-11T09:33:08;100327.03;;;7.20;100.00
59531;BME280;45349;48.692;8.186;2022-11-11T09:35:56;100329.59;;;7.36;100.00
59531;BME280;45349;48.692;8.186;2022-11-11T09:38:41;100330.16;;;7.41;100.00
59531;BME280;45349;48.692;8.186;2022-11-11T09:41:40;100327.75;;;7.38;100.00
59531;BME280;45349;48.692;8.186;2022-11-11T09:44:41;100326.63;;;7.42;100.00
59531;BME280;45349;48.692;8.186;2022-11-11T09:47:38;100327.38;;;7.44;100.00
59531;BME280;45349;48.692;8.186;2022-11-11T09:50:30;100320.72;;;7.54;100.00
59531;BME280;45349;48.692;8.186;2022-11-11T09:53:34;100315.34;;;7.58;100.00
59531;BME280;45349;48.692;8.186;2022-11-11T09:56:30;100319.63;;;7.73;100.00
59531;BME280;45349;48.692;8.186;2022-11-11T10:00:42;100320.22;;;7.93;100.00
59531;BME280;45349;48.692;8.186;2022-11-11T10:06:44;100311.75;;;8.33;100.00
59531;BME280;45349;48.692;8.186;2022-11-11T10:10:47;100307.84;;;8.40;100.00
59531;BME280;45349;48.692;8.186;2022-11-11T10:17:15;100311.25;;;8.69;100.00
59531;BME280;45349;48.692;8.186;2022-11-11T10:20:31;100300.22;;;8.66;100.00
59531;BME280;45349;48.692;8.186;2022-11-11T10:23:36;100303.28;;;8.58;100.00
59531;BME280;45349;48.692;8.186;2022-11-11T10:26:30;100306.63;;;8.60;100.00
59531;BME280;45349;48.692;8.186;2022-11-11T10:33:18;100304.59;;;8.51;100.00
59531;BME280;45349;48.692;8.186;2022-11-11T10:40:17;100300.41;;;8.63;100.00
59531;BME280;45349;48.692;8.186;2022-11-11T10:43:26;100304.34;;;8.83;100.00
59531;BME280;45349;48.692;8.186;2022-11-11T10:46:59;100303.78;;;9.05;100.00
59531;BME280;45349;48.692;8.186;2022-11-11T10:56:43;100297.22;;;9.53;100.00
59531;BME280;45349;48.692;8.186;2022-11-11T11:00:25;100295.00;;;9.59;100.00
59531;BME280;45349;48.692;8.186;2022-11-11T11:03:33;100295.22;;;9.56;99.70
59531;BME280;45349;48.692;8.186;2022-11-11T11:11:35;100305.56;;;9.45;100.00
59531;BME280;45349;48.692;8.186;2022-11-11T11:20:57;100303.97;;;9.29;99.78
59531;BME280;45349;48.692;8.186;2022-11-11T11:35:29;100294.28;;;9.04;100.00
59531;BME280;45349;48.692;8.186;2022-11-11T11:38:16;100290.06;;;9.16;100.00
59531;BME280;45349;48.692;8.186;2022-11-11T11:41:34;100289.47;;;9.38;100.00
59531;BME280;45349;48.692;8.186;2022-11-11T11:44:27;100287.00;;;9.50;99.54
59531;BME280;45349;48.692;8.186;2022-11-11T11:47:22;100276.66;;;9.74;99.52
59531;BME280;45349;48.692;8.186;2022-11-11T11:50:28;100268.22;;;9.83;99.91
59531;BME280;45349;48.692;8.186;2022-11-11T11:53:27;100261.13;;;9.98;99.66
59531;BME280;45349;48.692;8.186;2022-11-11T11:56:23;100259.00;;;10.16;98.63
59531;BME280;45349;48.692;8.186;2022-11-11T11:59:14;100264.03;;;9.94;96.88
59531;BME280;45349;48.692;8.186;2022-11-11T12:02:15;100267.81;;;10.02;98.33
59531;BME280;45349;48.692;8.186;2022-11-11T12:05:16;100271.66;;;9.97;97.29
59531;BME280;45349;48.692;8.186;2022-11-11T12:08:20;100265.69;;;9.95;96.32
59531;BME280;45349;48.692;8.186;2022-11-11T12:11:17;100267.97;;;10.12;98.08
59531;BME280;45349;48.692;8.186;2022-11-11T12:14:23;100259.97;;;10.02;97.06
59531;BME280;45349;48.692;8.186;2022-11-11T12:17:23;100267.75;;;10.15;98.45
59531;BME280;45349;48.692;8.186;2022-11-11T12:20:15;100274.97;;;10.12;99.61
59531;BME280;45349;48.692;8.186;2022-11-11T12:23:19;100274.16;;;9.85;98.39
59531;BME280;45349;48.692;8.186;2022-11-11T12:26:16;100273.53;;;9.69;100.00
59531;BME280;45349;48.692;8.186;2022-11-11T12:29:12;100270.31;;;9.65;100.00
59531;BME280;45349;48.692;8.186;2022-11-11T12:32:09;100272.81;;;9.54;100.00
59531;BME280;45349;48.692;8.186;2022-11-11T12:35:25;100273.97;;;9.50;100.00
59531;BME280;45349;48.692;8.186;2022-11-11T12:38:23;100273.22;;;9.35;100.00
59531;BME280;45349;48.692;8.186;2022-11-11T12:41:20;100268.28;;;9.17;100.00
59531;BME280;45349;48.692;8.186;2022-11-11T12:44:08;100265.41;;;8.94;100.00
59531;BME280;45349;48.692;8.186;2022-11-11T12:47:06;100270.19;;;8.88;100.00
59531;BME280;45349;48.692;8.186;2022-11-11T12:50:01;100265.28;;;8.83;100.00
59531;BME280;45349;48.692;8.186;2022-11-11T12:53:04;100259.59;;;8.91;100.00
59531;BME280;45349;48.692;8.186;2022-11-11T12:56:00;100260.47;;;8.77;100.00
59531;BME280;45349;48.692;8.186;2022-11-11T12:58:56;100261.78;;;8.69;100.00
59531;BME280;45349;48.692;8.186;2022-11-11T13:01:50;100267.13;;;8.81;100.00
59531;BME280;45349;48.692;8.186;2022-11-11T13:04:48;100264.78;;;8.91;100.00
59531;BME280;45349;48.692;8.186;2022-11-11T13:08:10;100261.34;;;9.03;100.00
59531;BME280;45349;48.692;8.186;2022-11-11T13:11:07;100266.81;;;9.00;100.00
59531;BME280;45349;48.692;8.186;2022-11-11T13:14:10;100265.06;;;8.86;100.00
59531;BME280;45349;48.692;8.186;2022-11-11T13:17:07;100262.41;;;9.00;100.00
59531;BME280;45349;48.692;8.186;2022-11-11T13:19:55;100262.22;;;9.16;100.00
59531;BME280;45349;48.692;8.186;2022-11-11T13:22:42;100266.81;;;9.13;100.00
59531;BME280;45349;48.692;8.186;2022-11-11T13:25:30;100266.94;;;9.24;100.00
59531;BME280;45349;48.692;8.186;2022-11-11T13:28:20;100267.38;;;9.31;100.00
59531;BME280;45349;48.692;8.186;2022-11-11T13:31:18;100265.94;;;9.40;100.00
59531;BME280;45349;48.692;8.186;2022-11-11T13:34:10;100258.19;;;9.38;100.00
59531;BME280;45349;48.692;8.186;2022-11-11T13:36:56;100259.06;;;9.52;100.00
59531;BME280;45349;48.692;8.186;2022-11-11T13:39:45;100265.31;;;9.62;100.00
59531;BME280;45349;48.692;8.186;2022-11-11T13:42:37;100262.78;;;9.60;100.00
59531;BME280;45349;48.692;8.186;2022-11-11T13:45:26;100277.81;;;9.70;100.00
59531;BME280;45349;48.692;8.186;2022-11-11T13:48:26;100277.69;;;9.58;100.00
59531;BME280;45349;48.692;8.186;2022-11-11T13:51:19;100284.41;;;9.75;100.00
59531;BME280;45349;48.692;8.186;2022-11-11T13:54:20;100287.81;;;10.02;100.00
59531;BME280;45349;48.692;8.186;2022-11-11T13:57:08;100284.53;;;10.24;100.00
59531;BME280;45349;48.692;8.186;2022-11-11T14:00:04;100280.97;;;10.38;100.00
59531;BME280;45349;48.692;8.186;2022-11-11T14:03:31;100280.13;;;10.51;100.00
59531;BME280;45349;48.692;8.186;2022-11-11T14:06:51;100284.13;;;10.43;99.32
59531;BME280;45349;48.692;8.186;2022-11-11T14:09:57;100271.06;;;10.30;100.00
59531;BME280;45349;48.692;8.186;2022-11-11T14:12:49;100267.84;;;10.14;100.00
59531;BME280;45349;48.692;8.186;2022-11-11T14:15:42;100265.78;;;10.06;100.00
59531;BME280;45349;48.692;8.186;2022-11-11T14:18:53;100265.81;;;9.93;100.00
59531;BME280;45349;48.692;8.186;2022-11-11T14:21:46;100265.19;;;9.64;100.00
59531;BME280;45349;48.692;8.186;2022-11-11T14:24:37;100267.94;;;9.49;100.00
59531;BME280;45349;48.692;8.186;2022-11-11T14:27:26;100273.63;;;9.28;100.00
59531;BME280;45349;48.692;8.186;2022-11-11T14:30:36;100271.97;;;9.27;100.00
59531;BME280;45349;48.692;8.186;2022-11-11T14:33:41;100274.22;;;9.19;100.00
59531;BME280;45349;48.692;8.186;2022-11-11T14:36:41;100285.13;;;8.98;100.00
59531;BME280;45349;48.692;8.186;2022-11-11T14:39:35;100280.84;;;8.97;100.00
59531;BME280;45349;48.692;8.186;2022-11-11T14:42:44;100277.22;;;9.00;100.00
59531;BME280;45349;48.692;8.186;2022-11-11T14:45:51;100271.41;;;8.82;100.00
59531;BME280;45349;48.692;8.186;2022-11-11T14:48:55;100265.78;;;8.75;100.00
59531;BME280;45349;48.692;8.186;2022-11-11T14:51:49;100266.59;;;8.76;100.00
59531;BME280;45349;48.692;8.186;2022-11-11T14:54:42;100272.75;;;8.75;100.00
59531;BME280;45349;48.692;8.186;2022-11-11T14:57:34;100265.88;;;8.74;100.00
59531;BME280;45349;48.692;8.186;2022-11-11T15:00:23;100268.81;;;8.54;100.00
59531;BME280;45349;48.692;8.186;2022-11-11T15:03:11;100273.19;;;8.39;100.00
59531;BME280;45349;48.692;8.186;2022-11-11T15:06:01;100268.56;;;8.30;100.00
59531;BME280;45349;48.692;8.186;2022-11-11T15:08:55;100273.41;;;8.22;100.00
59531;BME280;45349;48.692;8.186;2022-11-11T15:11:48;100278.69;;;8.20;100.00
59531;BME280;45349;48.692;8.186;2022-11-11T15:14:40;100278.88;;;8.17;100.00
59531;BME280;45349;48.692;8.186;2022-11-11T15:17:38;100272.66;;;8.20;100.00
59531;BME280;45349;48.692;8.186;2022-11-11T15:20:46;100269.03;;;8.22;100.00
59531;BME280;45349;48.692;8.186;2022-11-11T15:23:39;100263.56;;;8.12;100.00
59531;BME280;45349;48.692;8.186;2022-11-11T15:26:32;100267.00;;;7.98;100.00
59531;BME280;45349;48.692;8.186;2022-11-11T15:29:41;100259.78;;;7.89;100.00
59531;BME280;45349;48.692;8.186;2022-11-11T15:32:35;100260.97;;;7.83;100.00
59531;BME280;45349;48.692;8.186;2022-11-11T15:35:30;100262.28;;;7.76;100.00
59531;BME280;45349;48.692;8.186;2022-11-11T15:38:18;100265.22;;;7.70;100.00
59531;BME280;45349;48.692;8.186;2022-11-11T15:41:04;100255.13;;;7.65;100.00
59531;BME280;45349;48.692;8.186;2022-11-11T15:43:52;100250.53;;;7.54;100.00
59531;BME280;45349;48.692;8.186;2022-11-11T15:46:40;100256.66;;;7.53;100.00
59531;BME280;45349;48.692;8.186;2022-11-11T15:49:37;100255.28;;;7.48;100.00
59531;BME280;45349;48.692;8.186;2022-11-11T15:52:27;100255.75;;;7.40;100.00
59531;BME280;45349;48.692;8.186;2022-11-11T15:55:20;100265.47;;;7.36;100.00
59531;BME280;45349;48.692;8.186;2022-11-11T15:58:08;100257.97;;;7.32;100.00
59531;BME280;45349;48.692;8.186;2022-11-11T16:00:56;100254.13;;;7.23;100.00
59531;BME280;45349;48.692;8.186;2022-11-11T16:03:42;100260.25;;;7.22;100.00
59531;BME280;45349;48.692;8.186;2022-11-11T16:06:28;100261.47;;;7.31;100.00
59531;BME280;45349;48.692;8.186;2022-11-11T16:09:15;100263.75;;;7.21;100.00
59531;BME280;45349;48.692;8.186;2022-11-11T16:12:02;100264.69;;;7.20;100.00
59531;BME280;45349;48.692;8.186;2022-11-11T16:14:50;100258.28;;;7.11;100.00
59531;BME280;45349;48.692;8.186;2022-11-11T16:17:40;100266.13;;;7.09;100.00
59531;BME280;45349;48.692;8.186;2022-11-11T16:20:30;100276.63;;;7.08;100.00
59531;BME280;45349;48.692;8.186;2022-11-11T16:23:19;100265.31;;;7.09;100.00
59531;BME280;45349;48.692;8.186;2022-11-11T16:26:06;100269.84;;;7.05;100.00
59531;BME280;45349;48.692;8.186;2022-11-11T16:28:53;100278.47;;;7.06;100.00
59531;BME280;45349;48.692;8.186;2022-11-11T16:31:41;100278.47;;;7.06;100.00
59531;BME280;45349;48.692;8.186;2022-11-11T16:34:33;100276.69;;;7.06;100.00
59531;BME280;45349;48.692;8.186;2022-11-11T16:37:20;100272.53;;;7.04;100.00
59531;BME280;45349;48.692;8.186;2022-11-11T16:40:23;100270.00;;;7.02;100.00
59531;BME280;45349;48.692;8.186;2022-11-11T16:43:15;100275.78;;;7.07;100.00
59531;BME280;45349;48.692;8.186;2022-11-11T16:46:04;100278.13;;;7.12;100.00
59531;BME280;45349;48.692;8.186;2022-11-11T16:48:50;100276.91;;;7.18;100.00
59531;BME280;45349;48.692;8.186;2022-11-11T16:51:40;100276.16;;;7.16;100.00
59531;BME280;45349;48.692;8.186;2022-11-11T16:54:30;100282.47;;;7.12;100.00
59531;BME280;45349;48.692;8.186;2022-11-11T16:57:19;100278.66;;;7.03;100.00
59531;BME280;45349;48.692;8.186;2022-11-11T17:00:11;100277.91;;;7.01;100.00
59531;BME280;45349;48.692;8.186;2022-11-11T17:03:12;100281.06;;;7.06;100.00
59531;BME280;45349;48.692;8.186;2022-11-11T17:05:59;100279.63;;;7.00;100.00
59531;BME280;45349;48.692;8.186;2022-11-11T17:08:49;100276.22;;;7.00;100.00
59531;BME280;45349;48.692;8.186;2022-11-11T17:11:44;100262.38;;;6.99;100.00
59531;BME280;45349;48.692;8.186;2022-11-11T17:14:31;100264.16;;;6.99;100.00
59531;BME280;45349;48.692;8.186;2022-11-11T17:17:18;100260.41;;;6.88;100.00
59531;BME280;45349;48.692;8.186;2022-11-11T17:20:06;100264.34;;;6.96;100.00
59531;BME280;45349;48.692;8.186;2022-11-11T17:23:08;100264.22;;;6.97;100.00
59531;BME280;45349;48.692;8.186;2022-11-11T17:25:55;100267.59;;;6.99;100.00
59531;BME280;45349;48.692;8.186;2022-11-11T17:28:40;100264.16;;;6.99;100.00
59531;BME280;45349;48.692;8.186;2022-11-11T17:31:25;100266.75;;;6.99;100.00
59531;BME280;45349;48.692;8.186;2022-11-11T17:34:10;100277.91;;;7.01;100.00
59531;BME280;45349;48.692;8.186;2022-11-11T17:36:56;100274.78;;;6.94;100.00
59531;BME280;45349;48.692;8.186;2022-11-11T17:39:41;100275.66;;;6.94;100.00